OROVILLE DAM (ORO)

Elevation: 900' · FEATHER R basin · Operator: CA Dept of Water Resources/O & M

Provisional data, subject to change.
Query executed Tuesday at 6:18:29   clock

Select a sensor type for a plot of data.
Note: Reservoir Flows are daily averages.

Earlier

Date RES ELE    STORAGE    RES CHG    TOC STO    ABV TOC    OUTFLOW    INFLOW    EVAP    FNF    PPT INC    RAIN   
 FEET   AF   AF   AF   AF   CFS   CFS   CFS   CFS   INCHES   INCHES  
10/14/2012 768.71 1858546 -5218 3175500 -1316954 3703 1100 29 527 e 0.00 0.00
10/15/2012 768.35 1854938 -3607 3163000 -1308062 3525 1739 83 613 0.00 0.00
10/16/2012 768.17 1853137 -1802 3163000 -1309863 3009 2213 62 628 e 0.00 0.00
10/17/2012 767.89 1850338 -2799 3163000 -1312662 3033 1657 87 627 e 0.00 0.00
10/18/2012 767.61 1847540 -2797 3163000 -1315460 3259 1940 90 640 e 0.00 0.00
10/19/2012 767.30 1844448 -3093 3163000 -1318552 3266 1841 83 639 e 0.00 0.00
10/20/2012 767.08 1842255 -2193 3163000 -1320745 3302 2175 29 648 e 0.00 0.00
10/21/2012 766.80 1839467 -2788 3163000 -1323533 2995 1608 18 700 e 0.00 0.00
10/22/2012 766.70 1838472 -995 3163000 -1324528 3240 2918 129 3040 e 1.00 1.00
10/23/2012 766.61 1837577 -895 3163000 -1325423 2819 2397 29 1862 0.00 1.00
10/24/2012 766.53 1836782 -795 3163000 -1326218 2993 2625 32 2236 0.08 1.08
10/25/2012 766.64 1837876 1094 3163000 -1325124 1640 2213 22 1346 0.00 1.08
10/26/2012 766.54 1836881 -995 3163000 -1326119 2752 2250 50 1275 e 0.00 1.08
10/27/2012 766.27 1834199 -2682 3163000 -1328801 2970 1639 22 1275 e 0.00 1.08
10/28/2012 766.24 1833900 -299 3163000 -1329100 2372 2258 36 1061 e 0.00 1.08
10/29/2012 766.03 1831816 -2084 3163000 -1331184 3031 2074 143 1191 e 0.00 1.08
10/30/2012 765.68 1828346 -3470 3163000 -1334654 3473 1812 39 1191 e 0.00 1.08
10/31/2012 765.49 1826464 -1882 3163000 -1336536 3715 2862 46 2673 0.68 1.76
11/01/2012 765.17 1823298 -3166 3163000 -1339702 3704 2125 18 1518 0.12 1.88
11/02/2012 764.94 1821024 -2273 3163000 -1341976 3713 2589 22 1771 0.00 1.88
11/03/2012 764.60 1817668 -3357 3163000 -1345332 3708 1988 22 1100 0.00 1.88
11/04/2012 764.43 1815991 -1677 3163000 -1347009 3245 2430 30 1291 0.00 1.88
11/05/2012 764.02 1811952 -4039 3163000 -1351048 3965 1954 26 1036 0.00 1.88
11/06/2012 763.59 1807723 -4229 3163000 -1355277 3936 1948 44 1149 e 0.00 1.88
11/07/2012 763.32 1805070 -2652 3163000 -1357930 3801 2413 48 1149 e 0.00 1.88
11/08/2012 762.89 1800853 -4218 3163000 -1362147 4198 2154 33 996 0.04 1.92
11/09/2012 762.45 1796544 -4309 3163000 -1366456 4212 2013 22 738 0.08 2.00
11/10/2012 762.09 1793025 -3519 3163000 -1369975 4043 2283 15 1018 0.00 2.00
11/11/2012 762.05 1792634 -391 3163000 -1370366 3248 3115 15 977 e 0.00 2.00
11/12/2012 761.49 1787170 -5464 3163000 -1375830 4158 1402 47 977 e 0.00 2.00
11/13/2012 761.19 1784248 -2922 3163000 -1378752 4073 2632 33 1165 0.00 2.00
11/14/2012 760.74 1779871 -4377 3163000 -1383129 4370 2181 18 904 0.00 2.00

Later | Latest

Warning! This data is preliminary and subject to revision.

Download Data Now Download Data Now | Show ORO Map | Plot ORO Data | 1 Month ORO Data | Real-Time ORO Data | ORO Info